Time;durP1;ratioP1;P1;durP2;ratioP2;P2;SDS_P1;SDS_P2;PMS_P1;PMS_P2;Temp;Humidity;BMP_temperature;BMP_pressure;BME280_temperature;BME280_humidity;BME280_pressure;Samples;Min_cycle;Max_cycle;Signal;HPM_P1;HPM_P2
2021/12/10 00:02:31;;;;;;;1999.90;999.90;;;4.60;99.90;;;;;;4952417;28;20426;-70
2021/12/10 00:04:57;;;;;;;1999.90;999.90;;;4.60;99.90;;;;;;4952256;28;20407;-69
2021/12/10 00:07:25;;;;;;;1999.90;999.90;;;4.60;99.90;;;;;;4952506;28;20468;-69
2021/12/10 00:09:58;;;;;;;1999.90;999.90;;;4.60;99.90;;;;;;4952208;28;20166;-68
2021/12/10 00:12:34;;;;;;;1999.90;999.90;;;4.50;99.90;;;;;;4952235;28;20427;-68
2021/12/10 00:15:01;;;;;;;1999.90;999.90;;;4.40;99.90;;;;;;4951785;28;21003;-68
2021/12/10 00:17:27;;;;;;;1999.90;999.90;;;4.30;99.90;;;;;;4952221;28;20431;-69
2021/12/10 00:19:57;;;;;;;1999.90;999.90;;;4.30;99.90;;;;;;4952153;28;20767;-68
2021/12/10 00:22:27;;;;;;;1999.90;999.90;;;4.40;99.90;;;;;;4952177;28;20198;-68
2021/12/10 00:24:54;;;;;;;1999.90;999.90;;;4.30;99.90;;;;;;4951810;28;20645;-69
2021/12/10 00:27:28;;;;;;;1999.90;999.90;;;4.20;99.90;;;;;;4951950;28;20410;-68
2021/12/10 00:30:05;;;;;;;1999.90;999.90;;;4.30;99.90;;;;;;4952123;28;20501;-69
2021/12/10 00:32:35;;;;;;;1999.90;999.90;;;4.30;99.90;;;;;;4951931;28;20470;-69
2021/12/10 00:35:06;;;;;;;1999.90;999.90;;;4.30;99.90;;;;;;4951628;28;20465;-68
2021/12/10 00:37:32;;;;;;;1999.90;999.90;;;4.20;99.90;;;;;;4951948;28;20997;-69
2021/12/10 00:40:00;;;;;;;1999.90;999.90;;;4.20;99.90;;;;;;4951852;28;20205;-69
2021/12/10 00:42:29;;;;;;;1999.90;999.90;;;4.20;99.90;;;;;;4952033;28;20944;-69
2021/12/10 00:44:57;;;;;;;1999.90;999.90;;;4.20;99.90;;;;;;4951517;28;20407;-69
2021/12/10 00:47:23;;;;;;;1999.90;999.90;;;4.30;99.90;;;;;;4951732;28;20225;-69
2021/12/10 00:49:48;;;;;;;1999.90;999.90;;;4.30;99.90;;;;;;4951668;28;20784;-68
2021/12/10 00:52:15;;;;;;;1999.90;999.90;;;4.30;99.90;;;;;;4951453;28;20466;-68
2021/12/10 00:54:42;;;;;;;1999.90;999.90;;;4.30;99.90;;;;;;4951308;28;20198;-68
2021/12/10 00:57:09;;;;;;;1999.90;999.90;;;4.30;99.90;;;;;;4951494;28;20403;-68
2021/12/10 00:59:36;;;;;;;1999.90;999.90;;;4.20;99.90;;;;;;4951580;28;20414;-69
2021/12/10 01:02:04;;;;;;;1999.90;999.90;;;4.20;99.90;;;;;;4951428;28;20249;-69
2021/12/10 01:04:35;;;;;;;1999.90;999.90;;;4.20;99.90;;;;;;4951267;28;20414;-69
2021/12/10 01:07:05;;;;;;;1999.90;999.90;;;4.20;99.90;;;;;;4951505;28;20781;-69
2021/12/10 01:09:34;;;;;;;1999.90;999.90;;;4.20;99.90;;;;;;4951554;28;20662;-69
2021/12/10 01:12:05;;;;;;;1999.90;999.90;;;4.20;99.90;;;;;;4951252;28;20687;-69
2021/12/10 01:25:55;;;;;;;1999.90;999.90;;;4.30;99.90;;;;;;4951221;29;20217;-69
2021/12/10 01:28:21;;;;;;;1999.90;999.90;;;4.40;99.90;;;;;;4951151;28;20438;-69
2021/12/10 01:30:46;;;;;;;1999.90;999.90;;;4.40;99.90;;;;;;4951042;28;20982;-69
2021/12/10 01:33:16;;;;;;;1999.90;999.90;;;4.50;99.90;;;;;;4951097;28;20506;-69
2021/12/10 01:35:49;;;;;;;1999.90;999.90;;;4.40;99.90;;;;;;4950836;28;20179;-68
2021/12/10 01:38:16;;;;;;;1999.90;999.90;;;4.40;99.90;;;;;;4951091;28;20407;-69
2021/12/10 01:40:47;;;;;;;1999.90;999.90;;;4.40;99.90;;;;;;4952643;28;20426;-69
2021/12/10 01:43:22;;;;;;;1999.90;999.90;;;4.40;99.90;;;;;;4954539;28;20411;-68
2021/12/10 01:46:06;;;;;;;1999.90;999.90;;;4.30;99.90;;;;;;4954250;28;20407;-68
2021/12/10 01:48:54;;;;;;;1999.90;999.90;;;4.30;99.90;;;;;;4954420;28;20468;-69
2021/12/10 01:51:25;;;;;;;1999.90;999.90;;;4.20;99.90;;;;;;4953896;28;20470;-69
2021/12/10 01:53:54;;;;;;;1999.90;999.90;;;4.20;99.90;;;;;;4954383;28;20236;-68
2021/12/10 01:56:24;;;;;;;1999.90;999.90;;;4.20;99.90;;;;;;4954021;28;20236;-69
2021/12/10 01:58:51;;;;;;;1999.90;999.90;;;4.20;99.90;;;;;;4954255;28;20900;-69
2021/12/10 02:01:22;;;;;;;1999.90;999.90;;;4.20;99.90;;;;;;4954085;28;20234;-69
2021/12/10 02:03:49;;;;;;;1999.90;999.90;;;4.10;99.90;;;;;;4954125;28;20186;-68
2021/12/10 02:06:15;;;;;;;1999.90;999.90;;;4.10;99.90;;;;;;4953925;28;20774;-69
2021/12/10 02:08:41;;;;;;;1999.90;999.90;;;4.10;99.90;;;;;;4954193;28;20183;-69
2021/12/10 02:11:07;;;;;;;1999.90;999.90;;;4.10;99.90;;;;;;4953956;28;20477;-68
2021/12/10 02:13:33;;;;;;;1999.90;999.90;;;4.10;99.90;;;;;;4954056;28;20399;-69
2021/12/10 02:15:59;;;;;;;1999.90;999.90;;;4.00;99.90;;;;;;4953677;28;20440;-68
2021/12/10 02:18:25;;;;;;;1999.90;999.90;;;4.00;99.90;;;;;;4953925;28;20943;-68
2021/12/10 02:21:13;;;;;;;1999.90;999.90;;;3.90;99.90;;;;;;4953907;28;20442;-69
2021/12/10 02:23:43;;;;;;;1999.90;999.90;;;3.90;99.90;;;;;;4953896;28;20164;-69
2021/12/10 02:26:14;;;;;;;1999.90;999.90;;;3.80;99.90;;;;;;4953556;28;20175;-68
2021/12/10 02:28:41;;;;;;;1999.90;999.90;;;3.80;99.90;;;;;;4953886;28;20167;-69
2021/12/10 02:31:08;;;;;;;1999.90;999.90;;;3.70;99.90;;;;;;4953639;28;20830;-69
2021/12/10 02:33:34;;;;;;;1999.90;999.90;;;3.80;99.90;;;;;;4953770;28;20660;-69
2021/12/10 02:36:00;;;;;;;1999.90;999.90;;;3.90;99.90;;;;;;4953436;28;20425;-68
2021/12/10 02:38:26;;;;;;;1999.90;999.90;;;3.90;99.90;;;;;;4953678;28;20179;-68
2021/12/10 02:40:53;;;;;;;1999.90;999.90;;;3.90;99.90;;;;;;4953540;28;20285;-69
2021/12/10 02:43:21;;;;;;;1999.90;999.90;;;3.90;99.90;;;;;;4953618;28;20254;-68
2021/12/10 02:45:51;;;;;;;1999.90;999.90;;;3.90;99.90;;;;;;4953273;28;20820;-68
2021/12/10 02:48:17;;;;;;;1999.90;999.90;;;3.90;99.90;;;;;;4953596;28;20183;-69
2021/12/10 02:50:44;;;;;;;1999.90;999.90;;;4.00;99.90;;;;;;4953218;28;20549;-68
2021/12/10 02:53:14;;;;;;;1999.90;999.90;;;4.00;99.90;;;;;;4953417;28;20430;-68
2021/12/10 02:55:40;;;;;;;1999.90;999.90;;;3.90;99.90;;;;;;4953075;28;20179;-69
2021/12/10 02:58:10;;;;;;;1999.90;999.90;;;4.00;99.90;;;;;;4953335;28;20163;-69
2021/12/10 03:00:47;;;;;;;1999.90;999.90;;;4.00;99.90;;;;;;4953174;28;20380;-68
2021/12/10 03:03:12;;;;;;;1999.90;999.90;;;4.00;99.90;;;;;;4953381;28;20175;-69
2021/12/10 03:05:38;;;;;;;1999.90;999.90;;;4.00;99.90;;;;;;4952891;28;20179;-69
2021/12/10 03:08:05;;;;;;;1999.90;999.90;;;4.00;99.90;;;;;;4953200;28;20184;-69
2021/12/10 03:10:32;;;;;;;1999.90;999.90;;;4.00;99.90;;;;;;4953038;28;20207;-69
2021/12/10 03:12:59;;;;;;;1999.90;999.90;;;4.00;99.90;;;;;;4953155;28;20168;-69
2021/12/10 03:15:26;;;;;;;1999.90;999.90;;;4.00;99.90;;;;;;4952810;28;20468;-69
2021/12/10 03:17:52;;;;;;;1999.90;999.90;;;4.10;99.90;;;;;;4953151;28;20645;-69
2021/12/10 03:20:21;;;;;;;1999.90;999.90;;;4.10;99.90;;;;;;4952929;28;20237;-69
2021/12/10 03:22:48;;;;;;;1999.90;999.90;;;4.10;99.90;;;;;;4953035;28;20181;-69
2021/12/10 03:25:16;;;;;;;1999.90;999.90;;;4.00;99.90;;;;;;4952738;28;20402;-68
2021/12/10 03:27:42;;;;;;;1999.90;999.90;;;4.10;99.90;;;;;;4952966;28;20171;-69
2021/12/10 03:30:11;;;;;;;1999.90;999.90;;;4.10;99.90;;;;;;4952862;28;20649;-69
2021/12/10 03:32:40;;;;;;;1999.90;999.90;;;4.10;99.90;;;;;;4952870;28;20606;-68
2021/12/10 03:35:14;;;;;;;1999.90;999.90;;;4.20;99.90;;;;;;4952545;28;20250;-68
2021/12/10 03:37:41;;;;;;;1999.90;999.90;;;4.20;99.90;;;;;;4952877;28;20233;-68
2021/12/10 03:40:10;;;;;;;1999.90;999.90;;;4.20;99.90;;;;;;4952777;28;20175;-68
2021/12/10 03:42:36;;;;;;;1999.90;999.90;;;4.20;99.90;;;;;;4952709;28;20403;-68
2021/12/10 03:45:03;;;;;;;1999.90;999.90;;;4.20;99.90;;;;;;4952378;28;20230;-68
2021/12/10 03:47:28;;;;;;;1999.90;999.90;;;4.30;99.90;;;;;;4952627;28;20502;-69
2021/12/10 03:49:54;;;;;;;1999.90;999.90;;;4.30;99.90;;;;;;4952684;28;20501;-68
2021/12/10 03:52:20;;;;;;;1999.90;999.90;;;4.30;99.90;;;;;;4952505;28;20206;-68
2021/12/10 03:54:46;;;;;;;1999.90;999.90;;;4.30;99.90;;;;;;4952300;28;20534;-68
2021/12/10 03:57:12;;;;;;;1999.90;999.90;;;4.30;99.90;;;;;;4952521;28;20582;-69
2021/12/10 03:59:38;;;;;;;1999.90;999.90;;;4.40;99.90;;;;;;4952461;28;20243;-68
2021/12/10 04:02:07;;;;;;;1999.90;999.90;;;4.40;99.90;;;;;;4952439;28;20199;-69
2021/12/10 04:04:40;;;;;;;1999.90;999.90;;;4.40;99.90;;;;;;4951619;28;20434;-69
2021/12/10 04:07:10;;;;;;;1999.90;999.90;;;4.40;99.90;;;;;;4952415;28;20406;-68
2021/12/10 04:09:36;;;;;;;1999.90;999.90;;;4.40;99.90;;;;;;4952376;28;20403;-69
2021/12/10 04:12:02;;;;;;;1999.90;999.90;;;4.40;99.90;;;;;;4952148;28;20462;-68
2021/12/10 04:14:28;;;;;;;1999.90;999.90;;;4.40;99.90;;;;;;4951876;28;20533;-68
2021/12/10 04:16:56;;;;;;;1999.90;999.90;;;4.30;99.90;;;;;;4952266;28;20175;-68
2021/12/10 04:19:26;;;;;;;1999.90;999.90;;;4.30;99.90;;;;;;4952188;28;20254;-68
2021/12/10 04:21:55;;;;;;;1999.90;999.90;;;4.20;99.90;;;;;;4952141;28;20269;-68
2021/12/10 04:24:23;;;;;;;1999.90;999.90;;;4.20;99.90;;;;;;4951872;28;20407;-68
2021/12/10 04:26:49;;;;;;;1999.90;999.90;;;4.20;99.90;;;;;;4952188;28;20645;-69
2021/12/10 04:29:15;;;;;;;1999.90;999.90;;;4.20;99.90;;;;;;4951955;28;20174;-68
2021/12/10 04:31:41;;;;;;;1999.90;999.90;;;4.20;99.90;;;;;;4951784;28;20458;-68
2021/12/10 04:34:07;;;;;;;1999.90;999.90;;;4.20;99.90;;;;;;4951739;28;20403;-68
2021/12/10 04:36:34;;;;;;;1999.90;999.90;;;4.10;99.90;;;;;;4951935;28;20406;-68
2021/12/10 04:39:00;;;;;;;1999.90;999.90;;;4.10;99.90;;;;;;4951883;28;20400;-68
2021/12/10 04:41:26;;;;;;;1999.90;999.90;;;4.10;99.90;;;;;;5021126;23;20717;-69
2021/12/10 04:43:52;;;;;;;1999.90;999.90;;;4.10;99.90;;;;;;4990576;28;20488;-69
2021/12/10 04:46:18;;;;;;;1999.90;999.90;;;4.10;99.90;;;;;;4990655;28;20714;-69
2021/12/10 04:48:43;;;;;;;1999.90;999.90;;;4.10;99.90;;;;;;4990347;28;20797;-69
2021/12/10 04:51:09;;;;;;;1999.90;999.90;;;4.10;99.90;;;;;;4990339;28;20485;-69
2021/12/10 04:53:34;;;;;;;1999.90;999.90;;;4.10;99.90;;;;;;4990702;28;20204;-69
2021/12/10 04:56:00;;;;;;;1999.90;999.90;;;4.10;99.90;;;;;;4990314;28;20170;-69
2021/12/10 04:58:26;;;;;;;1999.90;999.90;;;4.00;99.90;;;;;;4990281;28;20171;-69
2021/12/10 05:00:51;;;;;;;1999.90;999.90;;;4.00;99.90;;;;;;4990509;28;20315;-69
2021/12/10 05:03:17;;;;;;;1999.90;999.90;;;4.00;99.90;;;;;;4990420;28;20182;-69
2021/12/10 05:05:44;;;;;;;1999.90;999.90;;;4.00;99.90;;;;;;4989881;28;20224;-69
2021/12/10 05:08:11;;;;;;;1999.90;999.90;;;4.00;99.90;;;;;;4990285;28;20264;-69
2021/12/10 05:10:37;;;;;;;1999.90;999.90;;;4.00;99.90;;;;;;4989999;28;20492;-69
2021/12/10 05:13:03;;;;;;;1999.90;999.90;;;4.00;99.90;;;;;;4990081;28;20174;-69
2021/12/10 05:15:32;;;;;;;1999.90;999.90;;;4.00;99.90;;;;;;4988733;28;20389;-69
2021/12/10 05:17:58;;;;;;;1999.90;999.90;;;3.80;99.90;;;;;;4990019;28;20409;-69
2021/12/10 05:20:33;;;;;;;1999.90;999.90;;;3.80;99.90;;;;;;4989969;28;20204;-68
2021/12/10 05:22:59;;;;;;;1999.90;999.90;;;3.70;99.90;;;;;;4990134;28;20175;-69
2021/12/10 05:25:28;;;;;;;1999.90;999.90;;;3.60;99.90;;;;;;4989825;28;20181;-69
2021/12/10 05:27:54;;;;;;;1999.90;999.90;;;3.70;99.90;;;;;;4990065;28;20261;-69
2021/12/10 05:30:24;;;;;;;1999.90;999.90;;;3.70;99.90;;;;;;4989887;28;20730;-69
2021/12/10 05:32:50;;;;;;;1999.90;999.90;;;3.70;99.90;;;;;;4990246;28;20709;-69
2021/12/10 05:35:16;;;;;;;1999.90;999.90;;;3.60;99.90;;;;;;4989529;28;20166;-69
2021/12/10 05:37:42;;;;;;;1999.90;999.90;;;3.70;99.90;;;;;;4990048;28;20631;-69
2021/12/10 05:40:12;;;;;;;1999.90;999.90;;;3.60;99.90;;;;;;4989573;28;20444;-69
2021/12/10 05:42:40;;;;;;;1999.90;999.90;;;3.60;99.90;;;;;;4989663;28;20458;-69
2021/12/10 05:45:06;;;;;;;1999.90;999.90;;;3.60;99.90;;;;;;4989478;28;20405;-70
2021/12/10 05:47:32;;;;;;;1999.90;999.90;;;3.50;99.90;;;;;;4989737;28;20549;-69
2021/12/10 05:49:58;;;;;;;1999.90;999.90;;;3.50;99.90;;;;;;4989623;28;20412;-70
2021/12/10 05:52:24;;;;;;;1999.90;999.90;;;3.40;99.90;;;;;;4989553;28;20810;-70
2021/12/10 05:54:52;;;;;;;1999.90;999.90;;;3.50;99.90;;;;;;4989303;28;20220;-70
2021/12/10 05:57:18;;;;;;;1999.90;999.90;;;3.50;99.90;;;;;;4989809;28;20170;-69
2021/12/10 05:59:43;;;;;;;1999.90;999.90;;;3.50;99.90;;;;;;4989631;28;20238;-69
2021/12/10 06:02:09;;;;;;;1999.90;999.90;;;3.40;99.90;;;;;;4989599;28;20499;-69
2021/12/10 06:04:35;;;;;;;1999.90;999.90;;;3.40;99.90;;;;;;4989504;28;20180;-69
2021/12/10 06:07:02;;;;;;;1999.90;999.90;;;3.40;99.90;;;;;;4989640;28;20635;-69
2021/12/10 06:09:27;;;;;;;1999.90;999.90;;;3.30;99.90;;;;;;4989642;28;20178;-68
2021/12/10 06:11:53;;;;;;;1999.90;999.90;;;3.40;99.90;;;;;;4989449;28;20218;-69
2021/12/10 06:14:19;;;;;;;1999.90;999.90;;;3.40;99.90;;;;;;4989276;28;20172;-69
2021/12/10 06:16:44;;;;;;;1999.90;999.90;;;3.30;99.90;;;;;;4989445;28;20249;-69
2021/12/10 06:19:10;;;;;;;1999.90;999.90;;;3.30;99.90;;;;;;4989453;28;20162;-70
2021/12/10 06:21:37;;;;;;;1999.90;999.90;;;3.40;99.90;;;;;;4989173;28;20953;-70
2021/12/10 06:24:04;;;;;;;1999.90;999.90;;;3.30;99.90;;;;;;4989188;28;20199;-69
2021/12/10 06:26:31;;;;;;;1999.90;999.90;;;3.40;99.90;;;;;;4990801;28;20201;-69
2021/12/10 06:28:57;;;;;;;1999.90;999.90;;;3.50;99.90;;;;;;4992671;28;20208;-69
2021/12/10 06:31:23;;;;;;;1999.90;999.90;;;3.50;99.90;;;;;;4992386;28;20197;-69
2021/12/10 06:33:50;;;;;;;1999.90;999.90;;;3.60;99.90;;;;;;4992729;28;20646;-69
2021/12/10 06:36:17;;;;;;;1999.90;999.90;;;3.60;99.90;;;;;;4992206;28;20214;-69
2021/12/10 06:38:45;;;;;;;1999.90;999.90;;;3.50;99.90;;;;;;4992414;28;20169;-69
2021/12/10 06:41:11;;;;;;;1999.90;999.90;;;3.60;99.90;;;;;;4992269;28;20206;-69
2021/12/10 06:43:37;;;;;;;1999.90;999.90;;;3.70;99.90;;;;;;4992311;28;20189;-70
2021/12/10 06:46:06;;;;;;;1999.90;999.90;;;3.70;99.90;;;;;;4992074;28;20549;-70
2021/12/10 06:48:32;;;;;;;1999.90;999.90;;;3.80;99.90;;;;;;4992298;28;20177;-70
2021/12/10 06:51:02;;;;;;;1999.90;999.90;;;3.70;99.90;;;;;;4992016;28;20205;-70
2021/12/10 06:53:29;;;;;;;1999.90;999.90;;;3.70;99.90;;;;;;4992249;28;20173;-69
2021/12/10 06:55:56;;;;;;;1999.90;999.90;;;3.70;99.90;;;;;;4991722;28;20173;-70
2021/12/10 06:58:23;;;;;;;1999.90;999.90;;;3.60;99.90;;;;;;4992220;28;20185;-70
2021/12/10 07:00:54;;;;;;;1999.90;999.90;;;3.70;99.90;;;;;;4992056;28;20189;-69
2021/12/10 07:03:23;;;;;;;1999.90;999.90;;;3.70;99.90;;;;;;4992039;28;20201;-69
2021/12/10 07:05:50;;;;;;;1999.90;999.90;;;3.70;99.90;;;;;;4991752;28;20224;-70
2021/12/10 07:08:17;;;;;;;1999.90;999.90;;;3.70;99.90;;;;;;4991875;28;20508;-70
2021/12/10 07:10:43;;;;;;;1999.90;999.90;;;3.70;99.90;;;;;;4991802;28;20790;-70
2021/12/10 07:13:09;;;;;;;1999.90;999.90;;;3.80;99.90;;;;;;4991910;28;20416;-69
2021/12/10 07:15:40;;;;;;;1999.90;999.90;;;3.80;99.90;;;;;;4991609;28;20172;-70
2021/12/10 07:18:07;;;;;;;1999.90;999.90;;;3.80;99.90;;;;;;4991892;28;20162;-69
2021/12/10 07:20:33;;;;;;;1999.90;999.90;;;3.90;99.90;;;;;;4991728;28;20683;-70
2021/12/10 07:22:59;;;;;;;1999.90;999.90;;;3.90;99.90;;;;;;4991864;28;20455;-69
2021/12/10 07:25:25;;;;;;;1999.90;999.90;;;3.90;99.90;;;;;;4991502;28;20174;-69
2021/12/10 07:27:52;;;;;;;1999.90;999.90;;;3.90;99.90;;;;;;4991727;28;20413;-70
2021/12/10 07:30:21;;;;;;;1999.90;999.90;;;3.90;99.90;;;;;;4991619;28;20273;-70
2021/12/10 07:32:47;;;;;;;1999.90;999.90;;;3.90;99.90;;;;;;4991692;28;20162;-70
2021/12/10 07:35:14;;;;;;;1999.90;999.90;;;3.90;99.90;;;;;;4991581;28;20538;-70
2021/12/10 07:37:39;;;;;;;1999.90;999.90;;;3.90;99.90;;;;;;4990736;28;20529;-70
2021/12/10 07:40:09;;;;;;;1999.90;999.90;;;3.90;99.90;;;;;;4991495;28;20205;-70
2021/12/10 07:42:35;;;;;;;1999.90;999.90;;;4.00;99.90;;;;;;4991734;28;20646;-70
2021/12/10 07:45:02;;;;;;;1999.90;999.90;;;3.90;99.90;;;;;;4991370;28;20188;-70
2021/12/10 07:47:33;;;;;;;1999.90;999.90;;;3.90;99.90;;;;;;4991902;28;20421;-70
2021/12/10 07:49:59;;;;;;;1999.90;999.90;;;3.90;99.90;;;;;;4991566;28;20194;-70
2021/12/10 07:52:27;;;;;;;1999.90;999.90;;;4.00;99.90;;;;;;4991470;28;20457;-69
2021/12/10 07:54:53;;;;;;;1999.90;999.90;;;4.00;99.90;;;;;;4991091;28;20732;-70
2021/12/10 07:57:20;;;;;;;1999.90;999.90;;;4.00;99.90;;;;;;4991270;28;20178;-70
2021/12/10 07:59:48;;;;;;;1999.90;999.90;;;4.00;99.90;;;;;;4991165;28;20425;-69
2021/12/10 08:02:15;;;;;;;1999.90;999.90;;;4.00;99.90;;;;;;4991392;28;20766;-70
2021/12/10 08:04:40;;;;;;;1999.90;999.90;;;4.00;99.90;;;;;;4991008;28;20170;-69
2021/12/10 08:07:06;;;;;;;1999.90;999.90;;;4.10;99.90;;;;;;4991130;28;20646;-69
2021/12/10 08:09:34;;;;;;;1999.90;999.90;;;4.20;99.90;;;;;;4991043;28;20207;-69
2021/12/10 08:12:00;;;;;;;1999.90;999.90;;;4.20;99.90;;;;;;4990924;28;20197;-69
2021/12/10 08:14:25;;;;;;;1999.90;999.90;;;4.20;99.90;;;;;;4990755;28;20397;-69
2021/12/10 08:16:51;;;;;;;1999.90;999.90;;;4.10;99.90;;;;;;4990931;28;20443;-69
2021/12/10 08:19:17;;;;;;;1999.90;999.90;;;4.20;99.90;;;;;;4990964;28;20169;-69
2021/12/10 08:21:43;;;;;;;1999.90;999.90;;;4.20;99.90;;;;;;4990857;28;20565;-69
2021/12/10 08:24:09;;;;;;;1999.90;999.90;;;4.20;99.90;;;;;;4990555;28;20698;-69
2021/12/10 08:26:35;;;;;;;1999.90;999.90;;;4.30;99.90;;;;;;4990750;28;20752;-69
2021/12/10 08:29:02;;;;;;;1999.90;999.90;;;4.30;99.90;;;;;;4990698;28;20420;-69
2021/12/10 08:31:29;;;;;;;1999.90;999.90;;;4.40;99.90;;;;;;4990417;28;20449;-68
2021/12/10 08:33:55;;;;;;;1999.90;999.90;;;4.40;99.90;;;;;;4990561;28;20417;-69
2021/12/10 08:36:22;;;;;;;1999.90;999.90;;;4.40;99.90;;;;;;4990421;28;20174;-69
2021/12/10 08:38:48;;;;;;;1999.90;999.90;;;4.40;99.90;;;;;;4990535;28;20177;-69
2021/12/10 08:41:18;;;;;;;1999.90;999.90;;;4.40;99.90;;;;;;4990361;28;20444;-69
2021/12/10 08:43:44;;;;;;;1999.90;999.90;;;4.40;99.90;;;;;;4990716;28;21105;-69
2021/12/10 08:46:11;;;;;;;1999.90;999.90;;;4.50;99.90;;;;;;4990410;28;20892;-69
2021/12/10 08:48:38;;;;;;;1999.90;999.90;;;4.40;99.90;;;;;;4990380;28;20409;-69
2021/12/10 08:51:13;;;;;;;1999.90;999.90;;;4.50;99.90;;;;;;4990492;28;20452;-69
2021/12/10 08:53:39;;;;;;;1999.90;999.90;;;4.50;99.90;;;;;;4990465;28;20408;-69
2021/12/10 08:56:05;;;;;;;1999.90;999.90;;;4.40;99.90;;;;;;4990328;28;20185;-68
2021/12/10 08:58:31;;;;;;;1999.90;999.90;;;4.50;99.90;;;;;;4990828;28;20767;-69
2021/12/10 09:01:03;;;;;;;1999.90;999.90;;;4.50;99.90;;;;;;4990361;28;20777;-70
2021/12/10 09:03:29;;;;;;;1999.90;999.90;;;4.50;99.90;;;;;;4990328;28;20538;-69
2021/12/10 09:05:55;;;;;;;1999.90;999.90;;;4.50;99.90;;;;;;4989977;28;20261;-69
2021/12/10 09:08:21;;;;;;;1999.90;999.90;;;4.50;99.90;;;;;;4987312;28;20181;-69
2021/12/10 09:10:48;;;;;;;1999.90;999.90;;;4.60;99.90;;;;;;4988513;28;20694;-70
2021/12/10 09:13:16;;;;;;;1999.90;999.90;;;4.60;99.90;;;;;;4989281;28;20408;-70
2021/12/10 09:16:08;;;;;;;1999.90;999.90;;;4.60;99.90;;;;;;4989511;28;20413;-70
2021/12/10 09:18:38;;;;;;;1999.90;999.90;;;4.60;99.90;;;;;;4989874;28;20405;-69
2021/12/10 09:21:06;;;;;;;1999.90;999.90;;;4.60;99.90;;;;;;4989622;28;20432;-70
2021/12/10 09:23:32;;;;;;;1999.90;999.90;;;4.60;99.90;;;;;;4988745;28;20182;-70
2021/12/10 09:26:03;;;;;;;1999.90;999.90;;;4.60;99.90;;;;;;4988559;28;20445;-70
2021/12/10 09:28:29;;;;;;;1999.90;999.90;;;4.60;99.90;;;;;;4989598;28;20894;-70
2021/12/10 09:30:59;;;;;;;1999.90;999.90;;;4.60;99.90;;;;;;4988596;28;20455;-69
2021/12/10 09:33:26;;;;;;;1999.90;999.90;;;4.60;99.90;;;;;;4970291;28;20418;-68
2021/12/10 09:35:52;;;;;;;1999.90;999.90;;;4.60;99.90;;;;;;4971311;28;20410;-68
2021/12/10 09:38:20;;;;;;;1999.90;999.90;;;4.60;99.90;;;;;;4970380;28;20445;-68
2021/12/10 09:40:49;;;;;;;1999.90;999.90;;;4.70;99.90;;;;;;4969498;28;20534;-68
2021/12/10 09:43:15;;;;;;;1999.90;999.90;;;4.70;99.90;;;;;;4969571;28;20239;-68
2021/12/10 09:45:43;;;;;;;1999.90;999.90;;;4.70;99.90;;;;;;4968923;28;20186;-69
2021/12/10 09:48:11;;;;;;;1999.90;999.90;;;4.70;99.90;;;;;;4969291;28;20406;-68
2021/12/10 09:50:41;;;;;;;1999.90;999.90;;;4.70;99.90;;;;;;4970840;28;20995;-68
2021/12/10 09:53:08;;;;;;;1999.90;999.90;;;4.70;99.90;;;;;;4970854;28;20433;-68
2021/12/10 09:55:36;;;;;;;1999.90;999.90;;;4.70;99.90;;;;;;4970259;28;20458;-68
2021/12/10 09:58:03;;;;;;;1999.90;999.90;;;4.80;99.90;;;;;;4970575;28;20967;-68
2021/12/10 10:00:45;;;;;;;1999.90;999.90;;;4.80;99.90;;;;;;4969705;28;20914;-68
2021/12/10 10:03:13;;;;;;;1999.90;999.90;;;4.80;99.90;;;;;;4973123;28;20501;-69
2021/12/10 10:05:43;;;;;;;1999.90;999.90;;;4.80;99.90;;;;;;4972115;28;20405;-69
2021/12/10 10:08:12;;;;;;;1999.90;999.90;;;4.80;99.90;;;;;;4972668;28;20907;-70
2021/12/10 10:10:40;;;;;;;1999.90;999.90;;;4.80;99.90;;;;;;4973203;28;20457;-70
2021/12/10 10:13:10;;;;;;;1999.90;999.90;;;4.80;99.90;;;;;;4973100;28;20414;-70
2021/12/10 10:15:39;;;;;;;1999.90;999.90;;;4.70;99.90;;;;;;4972058;28;20413;-70
2021/12/10 10:18:08;;;;;;;1999.90;999.90;;;4.80;99.90;;;;;;4973098;28;20170;-70
2021/12/10 10:20:37;;;;;;;1999.90;999.90;;;4.80;99.90;;;;;;4973469;28;20440;-69
2021/12/10 10:23:04;;;;;;;1999.90;999.90;;;4.80;99.90;;;;;;4972528;28;20408;-69
2021/12/10 10:25:31;;;;;;;1999.90;999.90;;;4.80;99.90;;;;;;4972527;28;20485;-69
2021/12/10 10:27:58;;;;;;;1999.90;999.90;;;4.80;99.90;;;;;;4972668;28;20406;-70
2021/12/10 10:30:34;;;;;;;1999.90;999.90;;;4.90;99.90;;;;;;4986090;28;20460;-68
2021/12/10 10:33:03;;;;;;;1999.90;999.90;;;4.90;99.90;;;;;;4992541;28;20182;-68
2021/12/10 10:35:33;;;;;;;1999.90;999.90;;;4.90;99.90;;;;;;4992340;28;20162;-68
2021/12/10 10:38:00;;;;;;;1999.90;999.90;;;4.90;99.90;;;;;;4991955;28;20164;-68
2021/12/10 10:40:32;;;;;;;1999.90;999.90;;;4.90;99.90;;;;;;4992016;28;20456;-68
2021/12/10 10:42:59;;;;;;;1999.90;999.90;;;4.90;99.90;;;;;;4991816;28;20400;-68
2021/12/10 10:45:28;;;;;;;1999.90;999.90;;;4.80;99.90;;;;;;4991203;28;20401;-68
2021/12/10 10:47:56;;;;;;;1999.90;999.90;;;4.90;99.90;;;;;;4992127;28;20405;-68
2021/12/10 10:50:26;;;;;;;1999.90;999.90;;;4.90;99.90;;;;;;4992474;28;20464;-70
2021/12/10 10:53:05;;;;;;;1999.90;999.90;;;4.90;99.90;;;;;;4992127;28;20485;-70
2021/12/10 10:55:35;;;;;;;1999.90;999.90;;;4.80;99.90;;;;;;4992804;28;20396;-68
2021/12/10 10:58:05;;;;;;;1999.90;999.90;;;4.90;99.90;;;;;;4992105;28;20447;-69
2021/12/10 11:00:43;;;;;;;1999.90;999.90;;;4.90;99.90;;;;;;4991484;28;20417;-69
2021/12/10 11:03:13;;;;;;;1999.90;999.90;;;4.80;99.90;;;;;;4991594;28;20500;-69
2021/12/10 11:05:55;;;;;;;1999.90;999.90;;;4.80;99.90;;;;;;4991345;28;20432;-69
2021/12/10 11:08:26;;;;;;;1999.90;999.90;;;4.80;99.90;;;;;;4991277;28;20681;-68
2021/12/10 11:10:51;;;;;;;1999.90;999.90;;;4.90;99.90;;;;;;4991656;28;20638;-69
2021/12/10 11:13:21;;;;;;;1999.90;999.90;;;4.90;99.90;;;;;;4990474;28;20409;-70
2021/12/10 11:16:05;;;;;;;1999.90;999.90;;;4.80;99.90;;;;;;4991268;28;20462;-70
2021/12/10 11:18:42;;;;;;;1999.90;999.90;;;4.80;99.90;;;;;;4990720;28;20393;-69
2021/12/10 11:21:07;;;;;;;1999.90;999.90;;;4.80;99.90;;;;;;4990268;28;20477;-69
2021/12/10 11:23:34;;;;;;;1999.90;999.90;;;4.80;99.90;;;;;;4990798;28;20875;-69
2021/12/10 11:26:00;;;;;;;1999.90;999.90;;;4.80;99.90;;;;;;4991118;28;20182;-69
2021/12/10 11:28:30;;;;;;;1999.90;999.90;;;4.80;99.90;;;;;;4991480;28;20413;-69
2021/12/10 11:31:04;;;;;;;1999.90;999.90;;;4.80;99.90;;;;;;4990503;28;20206;-69
2021/12/10 11:33:33;;;;;;;1999.90;999.90;;;4.90;99.90;;;;;;4990064;28;20157;-70
2021/12/10 11:36:08;;;;;;;1999.90;999.90;;;4.90;99.90;;;;;;4992023;28;20401;-69
2021/12/10 11:38:35;;;;;;;1999.90;999.90;;;4.80;99.90;;;;;;4991214;28;20484;-69
2021/12/10 11:41:04;;;;;;;1999.90;999.90;;;4.80;99.90;;;;;;4991008;28;20277;-70
2021/12/10 11:43:44;;;;;;;1999.90;999.90;;;4.90;99.90;;;;;;4991687;28;20401;-68
2021/12/10 11:49:04;;;;;;;1999.90;999.90;;;5.00;99.90;;;;;;4991929;28;20405;-68
2021/12/10 11:51:41;;;;;;;1999.90;999.90;;;5.00;99.90;;;;;;4991563;28;20452;-68
2021/12/10 11:54:22;;;;;;;1999.90;999.90;;;5.00;99.90;;;;;;4993001;28;20162;-68
2021/12/10 11:57:14;;;;;;;1999.90;999.90;;;5.10;99.90;;;;;;4992642;28;20396;-68
2021/12/10 11:59:48;;;;;;;1999.90;999.90;;;5.10;99.90;;;;;;4990919;28;20429;-68
2021/12/10 12:02:18;;;;;;;1999.90;999.90;;;5.20;99.90;;;;;;4991644;28;20937;-70
2021/12/10 12:04:48;;;;;;;1999.90;999.90;;;5.10;99.90;;;;;;4990319;28;20420;-69
2021/12/10 12:07:13;;;;;;;1999.90;999.90;;;5.10;99.90;;;;;;4990392;28;20409;-70
2021/12/10 12:09:41;;;;;;;1999.90;999.90;;;5.10;99.90;;;;;;4990276;28;20423;-70
2021/12/10 12:12:17;;;;;;;1999.90;999.90;;;5.10;99.90;;;;;;4990933;28;20196;-70
2021/12/10 12:14:50;;;;;;;1999.90;999.90;;;5.10;99.90;;;;;;4989598;28;20481;-70
2021/12/10 12:17:44;;;;;;;1999.90;999.90;;;5.10;99.90;;;;;;4990765;28;20409;-70
2021/12/10 12:20:26;;;;;;;1999.90;999.90;;;5.10;99.90;;;;;;4990423;28;20425;-69
2021/12/10 12:26:10;;;;;;;1999.90;999.90;;;5.10;99.90;;;;;;4990355;28;20912;-70
2021/12/10 12:28:43;;;;;;;1999.90;999.90;;;5.10;99.90;;;;;;4990261;28;20889;-70
2021/12/10 12:31:19;;;;;;;1999.90;999.90;;;5.00;99.90;;;;;;4990372;28;20980;-70
2021/12/10 12:34:20;;;;;;;1999.90;999.90;;;4.80;99.90;;;;;;4990513;28;20458;-69